Time;durP1;ratioP1;P1;durP2;ratioP2;P2;SDS_P1;SDS_P2;PMS_P1;PMS_P2;Temp;Humidity;BMP_temperature;BMP_pressure;BME280_temperature;BME280_humidity;BME280_pressure;Samples;Min_cycle;Max_cycle;Signal;HPM_P1;HPM_P2
2021/05/12 00:01:43;;;;;;;23.02;5.90;;;27.60;91.60;;;;;;5125473;28;20024;-53
2021/05/12 00:04:09;;;;;;;20.27;5.95;;;27.60;91.70;;;;;;5125199;28;20119;-54
2021/05/12 00:06:36;;;;;;;18.73;5.65;;;27.50;91.70;;;;;;5124294;28;20016;-56
2021/05/12 00:09:03;;;;;;;15.10;5.18;;;27.50;91.80;;;;;;5124104;28;20039;-57
2021/05/12 00:11:30;;;;;;;15.55;6.10;;;27.50;91.80;;;;;;5124507;28;20023;-56
2021/05/12 00:13:56;;;;;;;15.38;6.43;;;27.50;91.80;;;;;;5124654;28;20036;-56
2021/05/12 00:16:23;;;;;;;19.30;7.20;;;27.50;91.90;;;;;;5124748;28;20065;-54
2021/05/12 00:18:49;;;;;;;23.65;7.45;;;27.50;92.00;;;;;;5124686;28;20073;-49
2021/05/12 00:21:44;;;;;;;18.17;6.80;;;27.40;91.90;;;;;;5124501;28;20023;-57
2021/05/12 00:24:03;;;;;;;15.95;6.90;;;27.40;92.00;;;;;;5123969;28;20035;-53
2021/05/12 00:26:40;;;;;;;18.70;6.88;;;27.40;92.00;;;;;;5124382;28;20016;-55
2021/05/12 00:29:10;;;;;;;17.50;6.10;;;27.40;91.90;;;;;;5107397;28;20034;-49
2021/05/12 00:31:37;;;;;;;13.43;4.63;;;27.40;91.90;;;;;;5106894;28;20083;-56
2021/05/12 00:34:06;;;;;;;11.73;4.38;;;27.40;91.90;;;;;;5125118;28;20034;-52
2021/05/12 00:36:33;;;;;;;14.73;3.92;;;27.40;92.00;;;;;;5124468;28;20031;-54
2021/05/12 00:39:02;;;;;;;14.88;4.40;;;27.40;92.00;;;;;;5124666;28;20027;-57
2021/05/12 00:41:29;;;;;;;12.40;3.03;;;27.30;91.90;;;;;;5124150;28;20012;-55
2021/05/12 00:43:55;;;;;;;13.73;3.10;;;27.30;91.80;;;;;;5124593;28;20023;-58
2021/05/12 00:46:22;;;;;;;11.63;3.33;;;27.30;91.70;;;;;;5124449;28;20087;-51
2021/05/12 00:48:49;;;;;;;11.10;3.25;;;27.30;91.80;;;;;;5124477;28;20020;-48
2021/05/12 00:51:15;;;;;;;11.57;3.05;;;27.30;91.70;;;;;;5124514;28;20027;-57
2021/05/12 00:53:42;;;;;;;17.70;3.40;;;27.30;91.90;;;;;;5124438;28;20200;-57
2021/05/12 00:56:12;;;;;;;13.85;3.05;;;27.30;91.70;;;;;;5124227;28;20057;-60
2021/05/12 00:58:39;;;;;;;23.83;12.77;;;27.30;91.70;;;;;;5123819;28;20212;-52
2021/05/12 01:01:06;;;;;;;15.65;6.85;;;27.20;91.70;;;;;;5123370;28;20045;-49
2021/05/12 01:03:33;;;;;;;18.63;10.82;;;27.20;91.70;;;;;;5123952;28;20027;-55
2021/05/12 01:06:01;;;;;;;11.85;3.85;;;27.20;91.60;;;;;;5124127;28;20192;-52
2021/05/12 01:08:28;;;;;;;14.30;3.40;;;27.20;91.60;;;;;;5105380;28;20106;-57
2021/05/12 01:10:56;;;;;;;14.75;3.55;;;27.20;91.60;;;;;;5123775;28;20014;-53
2021/05/12 01:13:25;;;;;;;14.32;3.65;;;27.20;91.60;;;;;;5123941;28;20032;-50
2021/05/12 01:15:51;;;;;;;13.55;3.33;;;27.20;91.60;;;;;;5123911;28;20086;-54
2021/05/12 01:18:20;;;;;;;13.57;2.83;;;27.20;91.60;;;;;;5124036;28;20027;-55
2021/05/12 01:20:57;;;;;;;19.33;3.28;;;27.20;91.60;;;;;;5127162;28;20016;-52
2021/05/12 01:23:27;;;;;;;11.05;3.38;;;27.20;91.60;;;;;;5127725;28;20246;-55
2021/05/12 01:25:55;;;;;;;11.60;2.70;;;27.20;91.60;;;;;;5127713;28;20044;-58
2021/05/12 01:28:24;;;;;;;16.08;2.80;;;27.10;91.60;;;;;;5127688;28;20024;-54
2021/05/12 01:30:57;;;;;;;15.23;3.47;;;27.10;91.70;;;;;;5127610;28;20043;-53
2021/05/12 01:33:24;;;;;;;14.02;3.13;;;27.10;91.70;;;;;;5127986;28;20027;-55
2021/05/12 01:35:51;;;;;;;15.27;3.03;;;27.10;91.70;;;;;;5092196;28;20056;-57
2021/05/12 01:38:18;;;;;;;14.07;3.20;;;27.10;91.60;;;;;;5127256;28;20042;-52
2021/05/12 01:40:46;;;;;;;10.23;3.35;;;27.00;91.60;;;;;;5127101;28;20276;-47
2021/05/12 01:43:13;;;;;;;17.25;2.67;;;27.00;91.70;;;;;;5126924;28;20140;-52
2021/05/12 01:45:41;;;;;;;17.60;3.10;;;27.00;91.70;;;;;;5126440;28;20057;-47
2021/05/12 01:48:11;;;;;;;26.27;10.23;;;27.00;91.80;;;;;;5107644;28;20031;-48
2021/05/12 01:50:39;;;;;;;34.67;23.77;;;27.00;91.80;;;;;;5127148;28;20020;-51
2021/05/12 01:53:07;;;;;;;95.45;75.22;;;27.00;91.80;;;;;;5127346;28;20030;-54
2021/05/12 01:55:36;;;;;;;62.65;45.28;;;27.00;91.80;;;;;;5127118;28;20062;-56
2021/05/12 01:58:04;;;;;;;61.08;43.97;;;27.00;91.80;;;;;;5124822;28;20054;-55
2021/05/12 02:00:42;;;;;;;41.63;27.38;;;27.00;91.80;;;;;;5127023;28;20015;-58
2021/05/12 02:03:10;;;;;;;46.47;31.42;;;27.00;91.80;;;;;;5126809;28;20031;-53
2021/05/12 02:05:39;;;;;;;35.65;17.27;;;27.00;91.80;;;;;;5126562;28;20330;-54
2021/05/12 02:08:10;;;;;;;37.90;22.75;;;26.90;91.90;;;;;;5126695;28;20051;-53
2021/05/12 02:10:39;;;;;;;78.80;54.17;;;26.90;91.70;;;;;;5108397;28;20019;-57
2021/05/12 02:13:06;;;;;;;59.55;36.60;;;26.90;91.60;;;;;;5126686;28;20307;-55
2021/05/12 02:15:33;;;;;;;36.63;21.25;;;26.90;91.70;;;;;;5126667;28;20060;-59
2021/05/12 02:17:59;;;;;;;44.03;25.38;;;26.90;91.70;;;;;;5126621;28;20149;-57
2021/05/12 02:20:30;;;;;;;43.05;21.45;;;26.90;91.70;;;;;;5126618;28;20072;-54
2021/05/12 02:22:57;;;;;;;36.22;18.02;;;26.90;91.60;;;;;;5126485;28;20033;-52
2021/05/12 02:25:27;;;;;;;44.30;21.70;;;26.90;91.60;;;;;;5125968;28;20024;-53
2021/05/12 02:27:57;;;;;;;33.75;14.80;;;26.90;91.60;;;;;;5108098;28;20023;-57
2021/05/12 02:30:24;;;;;;;23.80;8.60;;;26.90;91.60;;;;;;5107265;28;20016;-55
2021/05/12 02:32:56;;;;;;;24.73;11.45;;;26.90;91.70;;;;;;5125929;28;20098;-58
2021/05/12 02:35:23;;;;;;;19.03;7.17;;;26.90;91.70;;;;;;5107991;28;20015;-57
2021/05/12 02:37:51;;;;;;;21.70;6.82;;;26.90;91.70;;;;;;5126280;28;20026;-52
2021/05/12 02:40:20;;;;;;;18.88;6.35;;;26.90;91.70;;;;;;5125544;28;20016;-51
2021/05/12 02:42:48;;;;;;;21.17;6.85;;;26.80;91.60;;;;;;5124988;28;20069;-58
2021/05/12 02:45:16;;;;;;;25.63;6.65;;;26.80;91.60;;;;;;5125300;28;20018;-54
2021/05/12 02:47:57;;;;;;;28.02;5.75;;;26.80;91.70;;;;;;5125581;28;20362;-52
2021/05/12 02:50:25;;;;;;;25.02;5.75;;;26.80;91.60;;;;;;5125680;28;20011;-53
2021/05/12 02:52:52;;;;;;;18.88;5.28;;;26.80;91.60;;;;;;5125790;28;20024;-54
2021/05/12 03:10:49;;;;;;;18.60;3.67;;;26.80;91.40;;;;;;5120707;27;20395;-50
2021/05/12 03:13:16;;;;;;;24.38;4.78;;;26.90;90.80;;;;;;5121632;28;20073;-51
2021/05/12 03:15:44;;;;;;;18.85;4.43;;;26.90;90.70;;;;;;5120414;28;20041;-50
2021/05/12 03:18:11;;;;;;;15.20;3.60;;;26.80;90.60;;;;;;5121205;28;20016;-53
2021/05/12 03:20:38;;;;;;;18.70;4.15;;;26.80;90.70;;;;;;5120492;28;20020;-53
2021/05/12 03:23:06;;;;;;;17.92;4.03;;;26.80;90.70;;;;;;5121439;28;20016;-56
2021/05/12 03:25:33;;;;;;;18.33;4.45;;;26.80;90.80;;;;;;5121327;28;20028;-52
2021/05/12 03:27:59;;;;;;;16.75;3.72;;;26.80;90.80;;;;;;5121244;28;20329;-52
2021/05/12 03:30:33;;;;;;;15.40;3.63;;;26.70;90.80;;;;;;5121282;28;20031;-56
2021/05/12 03:33:02;;;;;;;14.32;3.58;;;26.70;90.70;;;;;;5121090;28;20015;-51
2021/05/12 03:35:29;;;;;;;20.45;3.55;;;26.70;90.60;;;;;;5121166;28;20259;-52
2021/05/12 03:37:57;;;;;;;20.67;3.80;;;26.70;90.40;;;;;;5120908;28;20016;-54
2021/05/12 03:40:25;;;;;;;17.23;3.35;;;26.70;90.30;;;;;;5119866;28;20094;-52
2021/05/12 03:42:52;;;;;;;19.13;3.85;;;26.70;90.20;;;;;;5121087;28;20020;-53
2021/05/12 03:45:19;;;;;;;17.95;2.75;;;26.70;90.00;;;;;;5121006;28;20061;-61
2021/05/12 03:47:45;;;;;;;18.23;3.45;;;26.60;89.90;;;;;;5120837;28;20085;-54
2021/05/12 03:50:12;;;;;;;18.05;3.33;;;26.70;89.80;;;;;;5121398;28;20074;-50
2021/05/12 03:52:39;;;;;;;15.75;3.25;;;26.60;89.80;;;;;;5120901;28;20027;-53
2021/05/12 03:55:08;;;;;;;14.40;3.00;;;26.60;90.00;;;;;;5121230;28;20252;-52
2021/05/12 03:57:34;;;;;;;13.80;3.25;;;26.60;89.70;;;;;;5119836;28;20035;-51
2021/05/12 04:00:02;;;;;;;19.83;3.63;;;26.60;89.50;;;;;;5121107;28;20256;-55
2021/05/12 04:02:29;;;;;;;22.60;3.88;;;26.60;89.40;;;;;;5120618;28;20024;-51
2021/05/12 04:04:55;;;;;;;19.98;3.92;;;26.60;89.40;;;;;;5121041;28;20307;-52
2021/05/12 04:07:22;;;;;;;18.67;3.85;;;26.60;89.60;;;;;;5120317;28;20016;-51
2021/05/12 04:09:49;;;;;;;12.68;2.90;;;26.60;89.50;;;;;;5117390;28;20040;-52
2021/05/12 04:12:16;;;;;;;16.55;3.47;;;26.60;89.40;;;;;;5105584;28;20032;-53
2021/05/12 04:14:42;;;;;;;16.58;3.10;;;26.60;89.70;;;;;;5107329;28;20095;-51
2021/05/12 04:17:09;;;;;;;15.23;3.25;;;26.60;90.00;;;;;;5106663;28;20046;-51
2021/05/12 04:19:36;;;;;;;11.70;3.20;;;26.60;90.20;;;;;;5107114;28;20165;-50
2021/05/12 04:22:03;;;;;;;13.77;3.60;;;26.50;90.30;;;;;;5106731;28;20028;-52
2021/05/12 04:24:30;;;;;;;17.48;3.45;;;26.60;90.40;;;;;;5105606;28;20095;-51
2021/05/12 04:26:57;;;;;;;20.38;3.40;;;26.50;90.50;;;;;;5106798;28;20113;-51
2021/05/12 04:29:24;;;;;;;17.88;2.95;;;26.50;90.70;;;;;;5105536;28;20052;-50
2021/05/12 04:31:51;;;;;;;19.58;3.30;;;26.50;90.70;;;;;;5105218;28;20020;-51
2021/05/12 04:34:18;;;;;;;12.20;2.70;;;26.50;90.70;;;;;;5106781;28;20331;-51
2021/05/12 04:36:45;;;;;;;20.63;3.55;;;26.50;90.80;;;;;;5106447;28;20335;-51
2021/05/12 04:39:11;;;;;;;17.55;3.20;;;26.50;90.70;;;;;;5106476;28;20326;-52
2021/05/12 04:41:38;;;;;;;22.52;3.42;;;26.50;90.70;;;;;;5105431;28;20028;-51
2021/05/12 04:44:06;;;;;;;14.05;3.05;;;26.50;90.60;;;;;;5106558;28;20353;-55
2021/05/12 04:46:33;;;;;;;18.52;3.30;;;26.50;90.60;;;;;;5106188;28;20024;-50
2021/05/12 04:49:01;;;;;;;15.68;3.05;;;26.50;90.70;;;;;;5106470;28;20239;-51
2021/05/12 04:51:33;;;;;;;19.15;2.88;;;26.50;90.80;;;;;;5106174;28;20019;-53
2021/05/12 04:53:59;;;;;;;15.13;2.77;;;26.40;90.80;;;;;;5106262;28;20049;-58
2021/05/12 04:56:26;;;;;;;19.83;3.35;;;26.50;90.90;;;;;;5106155;28;20239;-51
2021/05/12 04:58:53;;;;;;;19.38;3.13;;;26.40;90.90;;;;;;5106173;28;20095;-51
2021/05/12 05:01:19;;;;;;;18.50;3.15;;;26.50;90.90;;;;;;5105838;28;20042;-53
2021/05/12 05:03:46;;;;;;;17.25;2.72;;;26.40;90.90;;;;;;5106220;28;20024;-51
2021/05/12 05:06:13;;;;;;;16.90;3.30;;;26.50;91.00;;;;;;5105976;28;20016;-49
2021/05/12 05:08:39;;;;;;;19.25;2.70;;;26.50;91.10;;;;;;5105671;28;20077;-57
2021/05/12 05:11:06;;;;;;;15.40;3.20;;;26.50;91.00;;;;;;5105914;28;20020;-50
2021/05/12 05:13:33;;;;;;;18.73;2.85;;;26.40;90.90;;;;;;5105846;28;20028;-52
2021/05/12 05:15:59;;;;;;;15.80;3.00;;;26.40;90.80;;;;;;5105614;28;20027;-54
2021/05/12 05:18:32;;;;;;;15.75;3.00;;;26.40;90.70;;;;;;5105575;28;20058;-54
2021/05/12 05:21:02;;;;;;;;;;;26.50;90.80;;;;;;5105997;28;20118;-55
2021/05/12 05:23:29;;;;;;;16.38;3.28;;;26.40;90.70;;;;;;5104593;28;19915;-51
2021/05/12 05:25:56;;;;;;;17.35;2.95;;;26.40;90.80;;;;;;5105558;28;20016;-51
2021/05/12 05:28:23;;;;;;;14.77;3.10;;;26.50;90.70;;;;;;5105598;28;20051;-56
2021/05/12 05:30:49;;;;;;;20.35;3.17;;;26.40;90.70;;;;;;5105364;28;20083;-51
2021/05/12 05:33:16;;;;;;;14.10;2.40;;;26.40;90.60;;;;;;5105467;28;20039;-51
2021/05/12 05:35:43;;;;;;;20.25;2.95;;;26.40;90.80;;;;;;5105376;28;20012;-52
2021/05/12 05:38:09;;;;;;;18.33;3.25;;;26.40;90.80;;;;;;5105071;28;20027;-54
2021/05/12 05:40:36;;;;;;;14.43;2.67;;;26.40;90.70;;;;;;5105293;28;20373;-50
2021/05/12 05:43:03;;;;;;;21.75;3.08;;;26.40;90.60;;;;;;5105226;28;20083;-51
2021/05/12 05:45:30;;;;;;;14.43;2.88;;;26.40;90.70;;;;;;5104984;28;20012;-54
2021/05/12 05:47:58;;;;;;;19.70;2.80;;;26.40;91.00;;;;;;5105052;28;20117;-52
2021/05/12 05:50:25;;;;;;;15.57;2.85;;;26.40;90.90;;;;;;5105097;28;20308;-52
2021/05/12 05:52:55;;;;;;;13.43;2.55;;;26.40;90.60;;;;;;5104909;28;20212;-50
2021/05/12 05:55:24;;;;;;;15.07;2.90;;;26.40;90.60;;;;;;5105188;28;20028;-51
2021/05/12 05:57:52;;;;;;;13.63;3.47;;;26.40;90.50;;;;;;5104990;28;20031;-51
2021/05/12 06:00:20;;;;;;;17.08;2.85;;;26.40;90.40;;;;;;5104541;28;20032;-56
2021/05/12 06:02:47;;;;;;;13.85;2.90;;;26.40;90.30;;;;;;5105040;28;20031;-53
2021/05/12 06:05:14;;;;;;;17.50;3.10;;;26.40;90.20;;;;;;5105527;28;20035;-56
2021/05/12 06:07:41;;;;;;;16.60;2.95;;;26.40;90.10;;;;;;5104557;28;20039;-54
2021/05/12 06:10:09;;;;;;;9.73;2.63;;;26.40;89.90;;;;;;5104880;28;20134;-55
2021/05/12 06:12:36;;;;;;;16.15;2.60;;;26.40;89.40;;;;;;5104745;28;20043;-57
2021/05/12 06:15:04;;;;;;;13.95;2.35;;;26.40;89.20;;;;;;5105064;28;20028;-53
2021/05/12 06:17:32;;;;;;;10.43;2.40;;;26.50;88.90;;;;;;5104974;28;20020;-55
2021/05/12 06:19:59;;;;;;;22.40;3.38;;;26.50;88.60;;;;;;5103655;28;20031;-53
2021/05/12 06:22:26;;;;;;;15.93;2.58;;;26.40;88.30;;;;;;5104614;28;20027;-54
2021/05/12 06:24:53;;;;;;;14.65;2.63;;;26.40;88.40;;;;;;5105081;28;20239;-52
2021/05/12 06:27:19;;;;;;;12.70;2.78;;;26.50;88.40;;;;;;5104623;28;20012;-55
2021/05/12 06:29:46;;;;;;;12.15;2.22;;;26.50;88.40;;;;;;5104882;28;20039;-53
2021/05/12 06:32:15;;;;;;;17.73;3.00;;;26.50;88.40;;;;;;5104611;28;20298;-55
2021/05/12 06:34:42;;;;;;;13.23;3.08;;;26.50;88.30;;;;;;5104791;28;20020;-57
2021/05/12 06:37:08;;;;;;;17.10;2.63;;;26.40;88.10;;;;;;5104150;28;20042;-52
2021/05/12 06:39:35;;;;;;;11.88;2.30;;;26.40;88.20;;;;;;5104593;28;20031;-56
2021/05/12 06:42:02;;;;;;;10.60;2.17;;;26.40;88.20;;;;;;5104208;28;20323;-52
2021/05/12 06:44:28;;;;;;;12.80;2.13;;;26.40;88.20;;;;;;5104446;28;20204;-55
2021/05/12 06:46:55;;;;;;;9.70;2.13;;;26.40;88.10;;;;;;5104311;28;20015;-52
2021/05/12 06:49:22;;;;;;;10.52;2.08;;;26.40;88.00;;;;;;5104459;28;20032;-54
2021/05/12 06:51:48;;;;;;;14.43;2.92;;;26.40;87.90;;;;;;5104113;28;20024;-53
2021/05/12 06:54:15;;;;;;;12.75;2.17;;;26.40;88.10;;;;;;5104393;28;20031;-53
2021/05/12 06:56:42;;;;;;;12.02;2.30;;;26.40;88.60;;;;;;5104180;28;20036;-50
2021/05/12 06:59:08;;;;;;;12.30;2.17;;;26.40;88.80;;;;;;5104014;28;20039;-52
2021/05/12 07:01:35;;;;;;;11.88;2.72;;;26.40;89.10;;;;;;5104073;28;20016;-51
2021/05/12 07:04:02;;;;;;;10.23;2.05;;;26.40;89.10;;;;;;5104213;28;20020;-50
2021/05/12 07:06:29;;;;;;;13.68;2.22;;;26.40;88.80;;;;;;5103793;28;20079;-54
2021/05/12 07:08:55;;;;;;;11.57;2.17;;;26.40;88.60;;;;;;5103891;28;20062;-54
2021/05/12 07:11:23;;;;;;;11.15;2.45;;;26.30;88.40;;;;;;5104132;28;20024;-50
2021/05/12 07:13:52;;;;;;;8.50;2.20;;;26.40;88.60;;;;;;5104195;28;20064;-52
2021/05/12 07:16:19;;;;;;;13.80;2.63;;;26.30;88.50;;;;;;5103855;28;20031;-54
2021/05/12 07:18:46;;;;;;;14.10;2.50;;;26.30;88.40;;;;;;5103980;28;20024;-51
2021/05/12 07:21:13;;;;;;;12.10;2.30;;;26.30;88.70;;;;;;5103737;28;20069;-55
2021/05/12 07:23:43;;;;;;;11.98;2.78;;;26.30;88.30;;;;;;5104059;28;20035;-51
2021/05/12 07:26:12;;;;;;;15.15;2.75;;;26.30;88.30;;;;;;5103758;28;20016;-51
2021/05/12 07:28:39;;;;;;;12.13;2.22;;;26.30;88.40;;;;;;5103709;28;20353;-52
2021/05/12 07:31:06;;;;;;;7.30;1.63;;;26.30;88.40;;;;;;5103777;28;20016;-55
2021/05/12 07:33:32;;;;;;;9.35;1.95;;;26.30;88.30;;;;;;5103735;28;20032;-54
2021/05/12 07:35:59;;;;;;;9.50;2.15;;;26.30;88.40;;;;;;5103818;28;20020;-58
2021/05/12 07:38:26;;;;;;;12.35;2.45;;;26.30;88.50;;;;;;5103924;28;20257;-50
2021/05/12 07:40:52;;;;;;;12.98;2.47;;;26.30;88.70;;;;;;5103624;28;20247;-56
2021/05/12 07:43:19;;;;;;;11.57;2.60;;;26.30;88.70;;;;;;5103477;28;20024;-54
2021/05/12 07:45:45;;;;;;;14.27;3.47;;;26.30;88.40;;;;;;5105249;28;20020;-51
2021/05/12 07:48:13;;;;;;;7.65;1.80;;;26.30;88.80;;;;;;5107277;28;20043;-56
2021/05/12 07:50:41;;;;;;;19.88;3.00;;;26.30;89.10;;;;;;5107317;28;20012;-59
2021/05/12 07:53:08;;;;;;;14.38;2.42;;;26.30;89.30;;;;;;5107373;28;20024;-52
2021/05/12 07:55:35;;;;;;;12.00;2.38;;;26.30;89.60;;;;;;5107261;28;20024;-53
2021/05/12 07:58:04;;;;;;;12.05;2.38;;;26.30;89.60;;;;;;5107034;28;20016;-61
2021/05/12 08:00:34;;;;;;;12.80;2.40;;;26.30;89.50;;;;;;5107384;28;20058;-57
2021/05/12 08:03:01;;;;;;;12.82;3.08;;;26.30;89.70;;;;;;5107062;28;20181;-54
2021/05/12 08:05:28;;;;;;;12.70;2.28;;;26.20;89.70;;;;;;5107002;28;20079;-57
2021/05/12 08:07:55;;;;;;;12.18;2.50;;;26.20;89.70;;;;;;5107007;28;20020;-53
2021/05/12 08:10:22;;;;;;;12.82;3.08;;;26.20;89.60;;;;;;5106821;28;20264;-51
2021/05/12 08:12:48;;;;;;;18.38;2.75;;;26.20;89.90;;;;;;5106878;28;20020;-55
2021/05/12 08:15:15;;;;;;;13.88;2.70;;;26.20;89.80;;;;;;5107383;28;20204;-53
2021/05/12 08:17:41;;;;;;;12.55;2.75;;;26.20;89.90;;;;;;5106936;28;20020;-52
2021/05/12 08:20:08;;;;;;;15.57;3.40;;;26.20;89.90;;;;;;5107082;28;20032;-58
2021/05/12 08:22:35;;;;;;;18.80;2.75;;;26.20;89.90;;;;;;5106756;28;20027;-55
2021/05/12 08:25:02;;;;;;;16.13;2.47;;;26.20;90.00;;;;;;5107126;28;20024;-56
2021/05/12 08:27:29;;;;;;;13.77;2.65;;;26.20;90.00;;;;;;5106635;28;20023;-62
2021/05/12 08:29:59;;;;;;;15.32;2.75;;;26.20;90.10;;;;;;5107157;28;20105;-62
2021/05/12 08:32:26;;;;;;;16.02;2.85;;;26.20;90.10;;;;;;5106650;28;20023;-60
2021/05/12 08:34:57;;;;;;;15.23;2.53;;;26.20;90.20;;;;;;5106804;28;20047;-62
2021/05/12 08:37:23;;;;;;;18.27;3.35;;;26.10;90.40;;;;;;5106540;28;20020;-56
2021/05/12 08:39:50;;;;;;;13.35;2.63;;;26.10;90.50;;;;;;5106867;28;20038;-54
2021/05/12 08:42:17;;;;;;;19.85;3.10;;;26.10;90.60;;;;;;5106339;28;20199;-52
2021/05/12 08:44:46;;;;;;;20.23;2.80;;;26.20;90.90;;;;;;5106971;28;20070;-55
2021/05/12 08:47:16;;;;;;;14.00;3.08;;;26.10;91.10;;;;;;5106379;28;20303;-61
2021/05/12 08:49:44;;;;;;;17.02;3.70;;;26.10;91.20;;;;;;5106587;28;20027;-60
2021/05/12 08:52:11;;;;;;;19.60;3.20;;;26.10;91.40;;;;;;5106343;28;20297;-61
2021/05/12 08:54:39;;;;;;;18.83;2.95;;;26.10;91.50;;;;;;5106652;28;20032;-55
2021/05/12 08:57:06;;;;;;;14.88;2.97;;;26.00;91.70;;;;;;5105955;28;20181;-52
2021/05/12 08:59:33;;;;;;;17.40;3.08;;;26.00;91.80;;;;;;5106248;28;20035;-52
2021/05/12 09:02:00;;;;;;;15.18;2.92;;;26.00;91.90;;;;;;5105971;28;20016;-54
2021/05/12 09:04:28;;;;;;;16.63;3.15;;;26.00;91.90;;;;;;5106230;28;20032;-54
2021/05/12 09:06:55;;;;;;;17.40;3.30;;;26.00;92.00;;;;;;5105912;28;20024;-53
2021/05/12 09:09:23;;;;;;;12.65;2.83;;;26.00;92.10;;;;;;5105755;28;20150;-60
2021/05/12 09:11:50;;;;;;;15.50;2.92;;;26.00;92.10;;;;;;5105730;28;20083;-53
2021/05/12 09:14:54;;;;;;;21.00;3.97;;;26.00;92.10;;;;;;5106289;28;20028;-54
2021/05/12 09:17:41;;;;;;;14.35;2.92;;;26.00;92.10;;;;;;5096265;28;20042;-59
2021/05/12 09:20:20;;;;;;;14.75;3.15;;;26.00;92.10;;;;;;5105945;28;20024;-51
2021/05/12 09:23:04;;;;;;;15.00;3.15;;;26.00;92.20;;;;;;5105579;28;20058;-53
2021/05/12 09:25:33;;;;;;;12.65;2.83;;;26.00;92.30;;;;;;5105356;28;20028;-55
2021/05/12 09:28:14;;;;;;;15.32;2.60;;;25.90;92.30;;;;;;5105425;28;20018;-50
2021/05/12 09:30:48;;;;;;;15.45;3.25;;;25.90;92.40;;;;;;5105264;28;20208;-51
2021/05/12 09:33:27;;;;;;;19.60;3.40;;;26.00;92.50;;;;;;5105432;28;20020;-52
2021/05/12 09:35:54;;;;;;;14.57;3.72;;;25.90;92.60;;;;;;5105434;28;20026;-54
2021/05/12 09:38:25;;;;;;;13.18;3.17;;;25.90;92.60;;;;;;5105496;28;20307;-57
2021/05/12 09:41:06;;;;;;;14.75;2.72;;;25.90;92.70;;;;;;5105349;28;20016;-54
2021/05/12 09:43:34;;;;;;;16.20;3.20;;;25.90;92.70;;;;;;5105120;28;20024;-58
2021/05/12 09:46:22;;;;;;;13.98;3.00;;;25.90;92.80;;;;;;5105210;28;20043;-51
2021/05/12 09:49:01;;;;;;;18.73;2.85;;;25.90;92.80;;;;;;5105063;28;20052;-56
2021/05/12 09:51:33;;;;;;;18.48;3.13;;;25.90;92.90;;;;;;5105360;28;20028;-54
2021/05/12 09:54:17;;;;;;;14.50;3.22;;;25.90;93.00;;;;;;5103988;28;20027;-58
2021/05/12 09:56:56;;;;;;;16.17;3.30;;;25.80;92.90;;;;;;5104890;28;20262;-59
2021/05/12 09:59:28;;;;;;;14.25;3.10;;;25.80;92.90;;;;;;5105001;28;20039;-59
2021/05/12 10:01:57;;;;;;;13.55;2.78;;;25.80;92.80;;;;;;5104838;28;20016;-58
2021/05/12 10:04:32;;;;;;;12.80;2.60;;;25.80;92.90;;;;;;5105009;28;20021;-57
2021/05/12 10:07:20;;;;;;;21.15;3.20;;;25.90;92.80;;;;;;5104714;28;20376;-54
2021/05/12 10:09:52;;;;;;;18.35;3.80;;;25.80;92.90;;;;;;5103940;28;20139;-51
2021/05/12 10:12:20;;;;;;;17.42;3.47;;;25.80;93.10;;;;;;5104726;28;20069;-51
2021/05/12 10:14:50;;;;;;;19.02;3.10;;;25.80;93.20;;;;;;5105076;28;20032;-54
2021/05/12 10:17:18;;;;;;;17.80;3.10;;;25.80;93.20;;;;;;5104507;28;20027;-56
2021/05/12 10:19:46;;;;;;;14.45;3.00;;;25.80;93.20;;;;;;5104829;28;20035;-55
2021/05/12 10:22:14;;;;;;;18.30;3.28;;;25.80;93.30;;;;;;5104395;28;20012;-56
2021/05/12 10:24:43;;;;;;;18.52;3.22;;;25.80;93.20;;;;;;5104838;28;20314;-54
2021/05/12 10:27:22;;;;;;;18.40;3.15;;;25.80;93.20;;;;;;5104507;28;20031;-57
2021/05/12 10:29:51;;;;;;;14.70;2.85;;;25.80;93.30;;;;;;5104814;28;20334;-57
2021/05/12 10:32:37;;;;;;;17.20;2.83;;;25.80;93.30;;;;;;5104376;28;20053;-54
2021/05/12 10:35:12;;;;;;;17.45;2.80;;;25.80;93.30;;;;;;5104647;28;20028;-55
2021/05/12 10:37:46;;;;;;;19.67;3.50;;;25.80;93.30;;;;;;5104312;28;20083;-55
2021/05/12 10:40:18;;;;;;;14.32;2.42;;;25.80;93.30;;;;;;5104531;28;20055;-58
2021/05/12 10:43:17;;;;;;;19.10;3.13;;;25.80;93.40;;;;;;5104428;28;20075;-53
2021/05/12 10:48:45;;;;;;;14.98;3.00;;;25.70;93.40;;;;;;5104173;28;20016;-52
2021/05/12 10:51:26;;;;;;;8.88;2.47;;;25.80;93.40;;;;;;5104047;28;20020;-54
2021/05/12 10:54:03;;;;;;;14.90;2.90;;;25.80;93.40;;;;;;5104024;28;20304;-53
2021/05/12 10:56:37;;;;;;;16.52;3.00;;;25.80;93.50;;;;;;5104222;28;20026;-51
2021/05/12 10:59:12;;;;;;;11.32;2.40;;;25.80;93.60;;;;;;5103992;28;20020;-59
2021/05/12 11:01:41;;;;;;;16.23;2.30;;;25.80;93.60;;;;;;5104171;28;20019;-54
2021/05/12 11:04:19;;;;;;;9.95;2.53;;;25.80;93.50;;;;;;5103997;28;20101;-57
2021/05/12 11:06:46;;;;;;;15.40;2.60;;;25.80;93.50;;;;;;5103942;28;20352;-53
2021/05/12 11:09:22;;;;;;;13.88;2.45;;;25.80;93.40;;;;;;5103843;28;20051;-57
2021/05/12 11:11:48;;;;;;;16.00;3.22;;;25.80;93.40;;;;;;5103681;28;20032;-48
2021/05/12 11:14:35;;;;;;;20.85;3.15;;;25.70;93.40;;;;;;5104141;28;20036;-54
2021/05/12 11:17:05;;;;;;;20.70;3.28;;;25.70;93.50;;;;;;5102588;28;20050;-50
2021/05/12 11:19:57;;;;;;;14.20;3.75;;;25.70;93.50;;;;;;5104039;28;20024;-49
2021/05/12 11:33:07;;;;;;;26.90;9.63;;;25.70;93.90;;;;;;5107783;28;20070;-50
2021/05/12 11:35:35;;;;;;;31.73;9.48;;;25.70;93.90;;;;;;5107795;28;20069;-50
2021/05/12 11:38:15;;;;;;;18.85;6.75;;;25.80;93.90;;;;;;5107494;28;20015;-53
2021/05/12 11:40:57;;;;;;;23.75;6.53;;;25.70;93.90;;;;;;5107640;28;20024;-54
2021/05/12 11:43:51;;;;;;;18.25;4.18;;;25.70;94.00;;;;;;5107518;28;20038;-53
2021/05/12 11:46:22;;;;;;;19.35;4.35;;;25.80;94.00;;;;;;5107440;28;20111;-50
2021/05/12 11:48:50;;;;;;;18.05;4.25;;;25.80;94.00;;;;;;5107640;28;20028;-52
2021/05/12 11:51:26;;;;;;;14.93;4.45;;;25.80;94.10;;;;;;5106145;28;20020;-53
2021/05/12 11:53:53;;;;;;;17.50;4.13;;;25.80;94.10;;;;;;5107464;28;20083;-57
2021/05/12 11:56:21;;;;;;;14.88;3.92;;;25.80;94.10;;;;;;5107247;28;20020;-52
2021/05/12 11:58:57;;;;;;;16.42;3.83;;;25.80;94.10;;;;;;5107312;28;20034;-51
2021/05/12 12:01:24;;;;;;;19.58;4.05;;;25.80;94.10;;;;;;5107155;28;20024;-54
2021/05/12 12:04:04;;;;;;;9.57;3.58;;;25.80;94.20;;;;;;5107367;28;20016;-53
2021/05/12 12:06:37;;;;;;;14.88;4.03;;;25.80;94.20;;;;;;5107119;28;20019;-56
2021/05/12 12:09:04;;;;;;;16.85;5.18;;;25.80;94.20;;;;;;5106937;28;20220;-51
2021/05/12 12:11:33;;;;;;;20.92;9.07;;;25.80;94.10;;;;;;5107062;28;20047;-50
2021/05/12 12:14:01;;;;;;;29.13;8.27;;;25.80;94.10;;;;;;5106931;28;20068;-54
2021/05/12 12:16:28;;;;;;;20.95;7.35;;;25.80;94.10;;;;;;5106961;28;20028;-50
2021/05/12 12:18:55;;;;;;;16.17;5.82;;;25.90;94.10;;;;;;5107084;28;20226;-51
2021/05/12 12:21:32;;;;;;;21.05;4.47;;;25.80;94.10;;;;;;5106662;28;20047;-54
2021/05/12 12:24:08;;;;;;;17.00;5.38;;;25.80;94.00;;;;;;5106986;28;20020;-52
2021/05/12 12:26:38;;;;;;;15.95;4.22;;;25.80;94.10;;;;;;5106636;28;20024;-48
2021/05/12 12:29:07;;;;;;;14.45;4.13;;;25.80;94.00;;;;;;5107004;28;20027;-55
2021/05/12 12:31:38;;;;;;;14.68;3.45;;;25.80;93.90;;;;;;5106046;28;20039;-57
2021/05/12 12:34:18;;;;;;;9.57;3.80;;;25.80;93.90;;;;;;5106727;28;20078;-50
2021/05/12 12:37:02;;;;;;;16.23;3.80;;;25.80;93.80;;;;;;5106492;28;20063;-51
2021/05/12 12:42:28;;;;;;;16.40;3.90;;;25.80;93.70;;;;;;5106316;28;20095;-50
2021/05/12 12:45:00;;;;;;;15.15;3.88;;;25.80;93.70;;;;;;5106864;28;20331;-52
2021/05/12 12:47:27;;;;;;;;;;;25.80;93.90;;;;;;5106698;28;20035;-50
2021/05/12 12:50:11;;;;;;;21.30;5.30;;;25.80;93.70;;;;;;5106765;28;19960;-53
2021/05/12 12:52:40;;;;;;;15.10;4.22;;;25.80;93.70;;;;;;5106260;28;20032;-54
2021/05/12 12:55:14;;;;;;;21.20;5.05;;;25.80;93.70;;;;;;5106103;28;20054;-54
2021/05/12 12:57:44;;;;;;;17.85;4.30;;;25.80;93.70;;;;;;5106100;28;20066;-50
2021/05/12 13:00:30;;;;;;;17.42;3.72;;;25.80;93.70;;;;;;5106185;28;20087;-55
2021/05/12 13:03:12;;;;;;;15.93;3.63;;;25.80;93.80;;;;;;5105996;28;20131;-50
2021/05/12 13:05:44;;;;;;;15.75;3.50;;;25.80;93.80;;;;;;5105952;28;20024;-54
2021/05/12 13:08:14;;;;;;;;;;;25.90;93.80;;;;;;5106416;28;20016;-51
2021/05/12 13:10:42;;;;;;;17.08;3.50;;;25.90;93.80;;;;;;5105678;28;19920;-52
2021/05/12 13:13:20;;;;;;;16.83;3.85;;;25.90;93.80;;;;;;5105871;28;20024;-52
2021/05/12 13:15:50;;;;;;;12.82;3.22;;;26.00;93.80;;;;;;5104601;28;20020;-50
2021/05/12 13:18:29;;;;;;;14.45;3.40;;;26.00;93.80;;;;;;5105541;28;20016;-50
2021/05/12 13:20:56;;;;;;;14.85;3.67;;;26.10;93.60;;;;;;5105665;28;20047;-49
2021/05/12 13:23:26;;;;;;;17.13;3.88;;;26.10;93.60;;;;;;5105510;28;20026;-49